SBBR/BSB METAR and TAF weather

Enter ICAO airport designator
Station Type Date Time Source
SBBR METAR 2021/10/20 06:00 UTC NOAA

SBBR 200600Z VRB02KT 9999 SCT003 19/18 Q1017


Station Type Date Time Source
SBBR Decoded METAR 2021/10/20 06:00 UTC NOAA

Brasilia Aeroporto , Brazil (SBBR) 15-52S 047-56W 1061M
Oct 20, 2021 - 02:00 AM EDT / 2021.10.20 0600 UTC
Wind: Variable at 2 MPH (2 KT):0
Visibility: greater than 7 mile(s):0
Sky conditions: partly cloudy
Temperature: 66 F (19 C)
Dew Point: 64 F (18 C)
Relative Humidity: 93%
Pressure (altimeter): 30.03 in. Hg (1017 hPa)
ob: SBBR 200600Z VRB02KT 9999 SCT003 19/18 Q1017
cycle: 6

Station Type Date Time Source
SBBR TAF 2021/10/20 06:04 UTC NOAA

TAF SBBR 200300Z 2006/2106 28002KT 8000 SCT023 TN19/2009Z TX27/2017Z
TEMPO 2009/2012 BKN012
BECMG 2013/2015 27010KT BKN015
BECMG 2015/2017 BKN025
TEMPO 2017/2022 TSRA BKN025 FEW035CB PROB40 2023/2102 25005KT VCTS SCT025 FEW035CB
BECMG 2102/2104 23005KT
BECMG 2104/2106 00000KT BKN015
RMK PGH

Example: see airport list